Кневичи

СКИДКИ НА СМАРТФОНЫ!

Карта отелей и гостиниц, располагающихся рядом с аэропортом Кневичи :

Кневичи
Владивосток
Приморский край 43° 23' 56.2812" N, 132° 8' 52.8" E
Код аэродрома ИКАО
UHWW
Код аэродрома RU
УХВВ
Координаты
N43.39897° E132.14800°
Превышение над уровнем моря
14
Основная полоса
07R/25L
Курс магнитный
071,2/251,2
Длина основной ВПП
3529
Ширина основной ВПП
60
Покрытие основной ВПП
Твёрдое (бетон)
Освещение ВПП
Постоянное
Тип: 
Аэродром
Класс аэродрома: 
Международный
Принадлежность: 
ГА
Статус: 
Действующий
Сайт: 
vvo.aero
Страна: 
Россия
Регион: 
Приморский край
Город: 
Владивосток
Дополнительная информация: 
Военный индекс: ЬХВВ/XHWW. Горный. Оператор: ОАО «Международный аэропорт Владивосток» (МАВ). Нкр.=(1500)м, обслуживает ВС до 182 тонн.
Схемы аэропортов: 
Погода: 

Авиационная погода в Кневичи

Регион: 
Погода METAR: 
UHWW 250400Z 23006MPS 9999 NSC 19/12 Q1016 R25L/0///70 NOSIG RMK QFE761
Время наблюдения
2022-09-25T04:00:00Z
Температура C
19.0
Точка росы
12.0
Направление ветра
230
Скорость ветра (узлы)
12
Метео видимость
6.21
Облачность
CLR
Нижняя граница облачности (футы)
Явления погоды
Условия полета
VFR
Аэропорт подробнее: 
CLR — нет облаков ниже 3000 м

Скидки на навигаторы!

Найти трансфер

С помощью этой формы Вы можете найти трансфер из аэропорта Кневичи в город, аэропорт или вокзал:

Погода в аэропортах:

Авиационная погода в Бухте Провидения

Погода METAR: 
UHMD 120000Z 02008G14MPS 9999 VCSH BKN020CB OVC080 08/07 Q0998 RMK QBB600 MT OBSC QFE747/0997
Время наблюдения
2022-09-12T00:00:00Z
Температура C
8.0
Точка росы
7.0
Направление ветра
20
Скорость ветра (узлы)
16
Метео видимость
6.21
Облачность
BKN
OVC
Нижняя граница облачности (футы)
2000
8000
Явления погоды
VCSH
Условия полета
MVFR
Аэропорт подробнее: 
BKN – значительная (рассеянная, разорванная) облачность; OVC – сплошная облачность;

Авиационная погода в Полярном

Регион: 
Погода METAR: 
UERP 250400Z 29003MPS 9999 -SHSN BKN023CB OVC100 M04/M05 Q1006 R17/491032 NOSIG RMK QFE710
Время наблюдения
2022-09-25T04:00:00Z
Температура C
-4.0
Точка росы
-5.0
Направление ветра
290
Скорость ветра (узлы)
6
Метео видимость
6.21
Облачность
BKN
OVC
Нижняя граница облачности (футы)
2300
10000
Явления погоды
-SHSN
Условия полета
MVFR
Аэропорт подробнее: 
BKN – значительная (рассеянная, разорванная) облачность; OVC – сплошная облачность;
-SHSN - слабый ливневой снег;

Авиационная погода в Москва - Шереметьево

Погода METAR: 
UUEE 250400Z 36003MPS 320V030 6000 -DZ OVC003 06/05 Q0997 R06R/290045 R06C/290051 NOSIG
Время наблюдения
2022-09-25T04:00:00Z
Температура C
6.0
Точка росы
5.0
Направление ветра
360
Скорость ветра (узлы)
6
Метео видимость
3.73
Облачность
OVC
Нижняя граница облачности (футы)
300
Явления погоды
-DZ
Условия полета
LIFR
Аэропорт подробнее: 
OVC – сплошная облачность;
-DZ – слабая морось;

Авиационная погода в Курске

Погода METAR: 
UUOK 250400Z 31006MPS 9999 -RA OVC030 07/06 Q1005 R30/290050 NOSIG RMK QFE735/0980
Время наблюдения
2022-09-25T04:00:00Z
Температура C
7.0
Точка росы
6.0
Направление ветра
310
Скорость ветра (узлы)
12
Метео видимость
6.21
Облачность
OVC
Нижняя граница облачности (футы)
3000
Явления погоды
-RA
Условия полета
MVFR
Аэропорт подробнее: 
OVC – сплошная облачность;
-RA - слабый дождь;